createdAt,value
2022-10-16T00:01:41.559Z,20.81
2022-10-16T00:04:10.583Z,20.97
2022-10-16T00:06:38.707Z,20.98
2022-10-16T00:09:07.289Z,21.00
2022-10-16T00:11:40.043Z,20.82
2022-10-16T00:14:12.125Z,20.99
2022-10-16T00:16:40.831Z,20.97
2022-10-16T00:19:09.131Z,20.99
2022-10-16T00:21:37.178Z,20.99
2022-10-16T00:24:07.317Z,21.00
2022-10-16T00:26:38.058Z,20.78
2022-10-16T00:29:06.905Z,21.00
2022-10-16T00:31:35.520Z,20.99
2022-10-16T00:34:03.760Z,20.99
2022-10-16T00:36:33.129Z,20.98
2022-10-16T00:39:02.498Z,20.77
2022-10-16T00:41:32.100Z,20.83
2022-10-16T00:44:03.406Z,20.98
2022-10-16T00:46:37.551Z,20.81
2022-10-16T00:49:10.727Z,20.60
2022-10-16T00:51:42.403Z,20.97
2022-10-16T00:54:12.624Z,20.93
2022-10-16T00:56:41.236Z,20.96
2022-10-16T00:59:20.272Z,20.95
2022-10-16T01:01:48.573Z,20.97
2022-10-16T01:04:16.686Z,20.96
2022-10-16T01:06:53.659Z,20.96
2022-10-16T01:09:26.078Z,20.96
2022-10-16T01:12:02.740Z,20.97
2022-10-16T01:14:41.435Z,20.97
2022-10-16T01:17:15.067Z,20.96
2022-10-16T01:20:12.560Z,20.96
2022-10-16T01:22:50.716Z,20.96
2022-10-16T01:25:26.830Z,20.96
2022-10-16T01:27:57.266Z,20.96
2022-10-16T01:30:28.400Z,20.98
2022-10-16T01:33:01.755Z,20.97
2022-10-16T01:35:33.968Z,20.78
2022-10-16T01:38:06.047Z,20.84
2022-10-16T01:40:36.402Z,20.98
2022-10-16T01:43:11.171Z,20.97
2022-10-16T01:45:39.422Z,20.97
2022-10-16T01:48:10.629Z,20.97
2022-10-16T01:50:42.719Z,20.97
2022-10-16T01:53:15.107Z,20.97
2022-10-16T01:55:46.636Z,20.97
2022-10-16T01:58:17.185Z,20.97
2022-10-16T02:00:48.471Z,20.98
2022-10-16T02:03:20.452Z,20.97
2022-10-16T02:05:52.810Z,20.73
2022-10-16T02:08:21.441Z,20.82
2022-10-16T02:10:49.553Z,20.96
2022-10-16T02:13:23.826Z,20.98
2022-10-16T02:15:51.852Z,20.93
2022-10-16T02:18:20.126Z,20.97
2022-10-16T02:20:54.555Z,20.95
2022-10-16T02:23:30.532Z,20.92
2022-10-16T02:26:01.261Z,20.97
2022-10-16T02:28:39.483Z,20.97
2022-10-16T02:31:11.317Z,20.96
2022-10-16T02:33:42.584Z,20.97
2022-10-16T02:36:11.541Z,20.96
2022-10-16T02:38:41.380Z,20.82
2022-10-16T02:41:09.983Z,20.97
2022-10-16T02:43:39.478Z,20.97
2022-10-16T02:46:07.812Z,20.96
2022-10-16T02:48:36.892Z,20.77
2022-10-16T02:51:05.215Z,20.99
2022-10-16T02:53:33.335Z,20.97
2022-10-16T02:56:01.554Z,20.99
2022-10-16T02:58:29.647Z,20.45
2022-10-16T03:00:59.325Z,20.98
2022-10-16T03:03:27.372Z,20.97
2022-10-16T03:05:55.449Z,20.97
2022-10-16T03:08:26.163Z,20.97
2022-10-16T03:10:54.631Z,20.96
2022-10-16T03:13:22.910Z,20.96
2022-10-16T03:15:51.028Z,20.97
2022-10-16T03:18:20.532Z,20.99
2022-10-16T03:20:48.665Z,20.97
2022-10-16T03:23:16.765Z,20.98
2022-10-16T03:25:47.229Z,20.97
2022-10-16T03:28:16.516Z,20.96
2022-10-16T03:30:45.446Z,20.96
2022-10-16T03:33:13.802Z,20.96
2022-10-16T03:35:43.285Z,20.66
2022-10-16T03:38:11.322Z,20.90
2022-10-16T03:40:39.481Z,20.97
2022-10-16T03:43:07.665Z,20.95
2022-10-16T03:45:35.823Z,20.96
2022-10-16T03:48:04.504Z,20.96
2022-10-16T03:50:32.588Z,20.95
2022-10-16T03:53:02.246Z,20.93
2022-10-16T03:55:30.439Z,20.96
2022-10-16T03:57:58.472Z,20.96
2022-10-16T04:00:26.556Z,20.68
2022-10-16T04:02:54.710Z,20.97
2022-10-16T04:05:23.460Z,20.96
2022-10-16T04:07:51.612Z,20.98
2022-10-16T04:10:21.227Z,20.95
2022-10-16T04:12:49.340Z,20.96
2022-10-16T04:15:17.517Z,20.95
2022-10-16T04:17:45.562Z,20.93
2022-10-16T04:20:13.881Z,20.93
2022-10-16T04:22:41.967Z,20.65
2022-10-16T04:25:10.889Z,20.63
2022-10-16T04:27:45.178Z,20.96
2022-10-16T04:30:14.875Z,20.96
2022-10-16T04:32:43.279Z,20.93
2022-10-16T04:35:11.536Z,20.96
2022-10-16T04:37:39.577Z,20.97
2022-10-16T04:40:08.586Z,20.85
2022-10-16T04:42:36.693Z,20.81
2022-10-16T04:45:07.590Z,20.98
2022-10-16T04:47:35.816Z,20.99
2022-10-16T04:50:03.898Z,20.96
2022-10-16T04:52:33.012Z,20.97
2022-10-16T04:55:03.522Z,20.95
2022-10-16T04:57:31.921Z,20.70
2022-10-16T05:00:00.360Z,20.97
2022-10-16T05:02:29.959Z,20.95
2022-10-16T05:04:58.373Z,20.96
2022-10-16T05:07:26.919Z,20.96
2022-10-16T05:09:55.369Z,20.97
2022-10-16T05:12:23.499Z,20.98
2022-10-16T05:14:51.690Z,20.99
2022-10-16T05:17:19.757Z,20.97
2022-10-16T05:19:49.260Z,20.96
2022-10-16T05:22:18.736Z,21.00
2022-10-16T05:24:46.828Z,20.97
2022-10-16T05:27:19.967Z,20.98
2022-10-16T05:29:48.971Z,20.44
2022-10-16T05:32:17.822Z,21.01
2022-10-16T05:34:46.175Z,20.99
2022-10-16T05:37:15.695Z,20.96
2022-10-16T05:39:43.747Z,20.98
2022-10-16T05:42:11.826Z,20.97
2022-10-16T05:44:39.891Z,20.99
2022-10-16T05:47:07.944Z,20.87
2022-10-16T05:49:39.086Z,20.74
2022-10-16T05:52:09.508Z,20.92
2022-10-16T05:54:39.178Z,21.07
2022-10-16T05:57:07.830Z,21.07
2022-10-16T05:59:35.889Z,20.91
2022-10-16T06:02:04.115Z,21.03
2022-10-16T06:04:32.199Z,21.04
2022-10-16T06:07:02.478Z,21.04
2022-10-16T06:09:30.550Z,21.04
2022-10-16T06:12:00.048Z,21.03
2022-10-16T06:14:31.755Z,21.02
2022-10-16T06:16:59.913Z,21.01
2022-10-16T06:19:28.022Z,21.00
2022-10-16T06:21:59.097Z,21.02
2022-10-16T06:24:27.414Z,21.02
2022-10-16T06:26:55.559Z,21.02
2022-10-16T06:29:25.115Z,21.02
2022-10-16T06:31:54.032Z,21.00
2022-10-16T06:34:22.098Z,21.02
2022-10-16T06:36:50.175Z,21.00
2022-10-16T06:39:18.267Z,21.01
2022-10-16T06:41:46.392Z,21.01
2022-10-16T06:44:15.475Z,20.81
2022-10-16T06:46:44.986Z,21.02
2022-10-16T06:49:13.061Z,21.03
2022-10-16T06:51:43.503Z,21.04
2022-10-16T06:54:14.018Z,21.05
2022-10-16T06:56:43.844Z,21.03
2022-10-16T06:59:12.721Z,21.05
2022-10-16T07:01:41.136Z,21.06
2022-10-16T07:04:12.499Z,21.03
2022-10-16T07:06:41.524Z,21.04
2022-10-16T07:09:12.440Z,20.98
2022-10-16T07:11:42.554Z,21.01
2022-10-16T07:14:18.259Z,21.02
2022-10-16T07:16:46.771Z,20.69
2022-10-16T07:19:19.305Z,21.02
2022-10-16T07:21:53.927Z,20.96
2022-10-16T07:24:22.116Z,21.02
2022-10-16T07:26:50.609Z,21.01
2022-10-16T07:29:21.288Z,21.01
2022-10-16T07:31:51.801Z,20.96
2022-10-16T07:34:24.993Z,21.01
2022-10-16T07:36:53.804Z,21.00
2022-10-16T07:39:22.316Z,20.97
2022-10-16T07:41:50.617Z,21.01
2022-10-16T07:44:19.325Z,20.88
2022-10-16T07:46:49.905Z,20.78
2022-10-16T07:49:19.690Z,21.02
2022-10-16T07:51:49.947Z,21.01
2022-10-16T07:54:19.484Z,20.68
2022-10-16T07:56:48.129Z,21.01
2022-10-16T07:59:16.524Z,21.01
2022-10-16T08:01:44.692Z,21.01
2022-10-16T08:04:13.979Z,21.02
2022-10-16T08:06:43.252Z,21.02
2022-10-16T08:09:12.848Z,20.98
2022-10-16T08:11:40.994Z,20.70
2022-10-16T08:14:09.162Z,21.00
2022-10-16T08:16:37.283Z,21.00
2022-10-16T08:19:05.491Z,21.01
2022-10-16T08:21:33.819Z,20.94
2022-10-16T08:24:02.133Z,20.94
2022-10-16T08:26:32.278Z,21.01
2022-10-16T08:29:00.482Z,20.81
2022-10-16T08:31:28.765Z,21.00
2022-10-16T08:33:56.879Z,20.99
2022-10-16T08:36:34.631Z,20.93
2022-10-16T08:39:02.685Z,20.99
2022-10-16T08:42:04.438Z,20.97
2022-10-16T08:44:56.549Z,20.96
2022-10-16T08:47:32.524Z,20.95
2022-10-16T08:50:10.480Z,20.94
2022-10-16T08:52:42.782Z,20.95
2022-10-16T08:55:25.512Z,20.95
2022-10-16T08:57:58.425Z,20.78
2022-10-16T09:00:28.874Z,20.95
2022-10-16T09:03:10.532Z,20.97
2022-10-16T09:06:08.144Z,20.80
2022-10-16T09:08:49.263Z,20.97
2022-10-16T09:11:26.982Z,20.79
2022-10-16T09:14:09.705Z,20.96
2022-10-16T09:16:41.480Z,20.74
2022-10-16T09:19:23.001Z,20.95
2022-10-16T09:21:54.750Z,20.78
2022-10-16T09:24:30.407Z,20.95
2022-10-16T09:27:01.628Z,20.88
2022-10-16T09:29:32.496Z,20.96
2022-10-16T09:32:15.493Z,20.91
2022-10-16T09:34:47.713Z,20.83
2022-10-16T09:37:20.088Z,20.97
2022-10-16T09:39:50.896Z,20.95
2022-10-16T09:42:24.086Z,20.90
2022-10-16T09:44:56.139Z,20.96
2022-10-16T09:47:32.198Z,20.96
2022-10-16T09:50:07.226Z,20.94
2022-10-16T09:52:37.278Z,20.71
2022-10-16T09:55:16.601Z,20.95
2022-10-16T09:57:54.170Z,20.94
2022-10-16T10:00:25.035Z,20.95
2022-10-16T10:05:31.845Z,20.67
2022-10-16T10:08:04.097Z,20.94
2022-10-16T10:10:34.435Z,20.95
2022-10-16T10:13:03.765Z,20.87
2022-10-16T10:15:44.620Z,20.96
2022-10-16T10:18:21.726Z,20.75
2022-10-16T10:21:01.589Z,20.96
2022-10-16T10:23:34.642Z,20.71
2022-10-16T10:26:12.226Z,20.96
2022-10-16T10:31:51.909Z,20.88
2022-10-16T10:34:33.451Z,20.96
2022-10-16T10:37:10.931Z,20.84
2022-10-16T10:39:52.656Z,20.62
2022-10-16T10:42:30.802Z,20.95
2022-10-16T10:45:26.743Z,20.95
2022-10-16T10:48:11.224Z,20.95
2022-10-16T10:50:51.557Z,20.80
2022-10-16T10:53:33.173Z,20.99
2022-10-16T10:56:20.818Z,20.97
2022-10-16T10:59:17.113Z,21.05
2022-10-16T11:01:57.339Z,21.03
2022-10-16T11:05:24.218Z,21.24
2022-10-16T11:08:08.022Z,21.48
2022-10-16T11:10:48.483Z,21.67
2022-10-16T11:13:30.923Z,21.68
2022-10-16T11:16:01.642Z,21.73
2022-10-16T11:18:41.030Z,21.76
2022-10-16T11:21:15.323Z,21.88
2022-10-16T11:23:50.073Z,21.96
2022-10-16T11:26:24.508Z,21.97
2022-10-16T11:29:05.299Z,21.81
2022-10-16T11:31:41.349Z,21.86
2022-10-16T11:34:19.253Z,21.78
2022-10-16T11:36:53.451Z,21.73
2022-10-16T11:39:25.587Z,21.68
2022-10-16T11:41:58.026Z,21.64
2022-10-16T11:44:44.801Z,21.60
2022-10-16T11:47:53.985Z,21.57
2022-10-16T11:50:27.398Z,21.54
2022-10-16T11:53:05.901Z,21.45
2022-10-16T11:55:40.555Z,21.32
2022-10-16T11:58:21.314Z,21.44
2022-10-16T12:00:59.934Z,21.10
2022-10-16T12:03:34.029Z,21.46
2022-10-16T12:06:15.596Z,21.46
2022-10-16T12:08:45.872Z,21.31
2022-10-16T12:11:32.889Z,21.45
2022-10-16T12:14:27.991Z,21.35
2022-10-16T12:16:59.460Z,21.42
2022-10-16T12:19:29.829Z,21.42
2022-10-16T12:22:00.243Z,21.31
2022-10-16T12:24:53.877Z,21.40
2022-10-16T12:27:35.592Z,21.30
2022-10-16T12:30:06.896Z,21.41
2022-10-16T12:32:53.738Z,21.38
2022-10-16T12:35:24.718Z,21.34
2022-10-16T12:37:54.359Z,21.31
2022-10-16T12:40:33.385Z,21.20
2022-10-16T12:43:01.930Z,21.20
2022-10-16T12:45:34.592Z,21.33
2022-10-16T12:48:05.521Z,21.30
2022-10-16T12:50:36.595Z,21.24
2022-10-16T12:53:19.205Z,21.26
2022-10-16T12:55:57.566Z,21.07
2022-10-16T12:58:41.013Z,21.31
2022-10-16T13:01:20.169Z,21.30
2022-10-16T13:04:19.024Z,21.31
2022-10-16T13:06:55.671Z,21.30
2022-10-16T13:09:42.260Z,21.30
2022-10-16T13:12:38.818Z,21.27
2022-10-16T13:15:27.767Z,21.19
2022-10-16T13:18:05.488Z,21.26
2022-10-16T13:20:38.634Z,21.26
2022-10-16T13:23:16.710Z,21.26
2022-10-16T13:25:58.553Z,21.03
2022-10-16T13:28:34.368Z,21.24
2022-10-16T13:31:04.155Z,21.24
2022-10-16T13:33:35.752Z,21.27
2022-10-16T13:36:05.503Z,21.25
2022-10-16T13:38:35.003Z,21.25
2022-10-16T13:41:05.829Z,21.24
2022-10-16T13:43:39.464Z,21.26
2022-10-16T13:46:09.943Z,21.26
2022-10-16T13:48:38.195Z,21.25
2022-10-16T13:51:13.659Z,21.03
2022-10-16T13:53:42.791Z,21.08
2022-10-16T13:56:14.575Z,21.25
2022-10-16T13:58:45.986Z,21.19
2022-10-16T14:01:20.613Z,21.23
2022-10-16T14:03:50.878Z,21.22
2022-10-16T14:06:23.104Z,21.07
2022-10-16T14:09:01.490Z,21.22
2022-10-16T14:11:30.025Z,21.22
2022-10-16T14:13:59.799Z,21.22
2022-10-16T14:16:31.027Z,21.19
2022-10-16T14:19:01.518Z,21.22
2022-10-16T14:21:30.305Z,20.93
2022-10-16T14:23:58.763Z,21.06
2022-10-16T14:26:30.097Z,21.24
2022-10-16T14:29:13.809Z,21.23
2022-10-16T14:31:42.495Z,21.22
2022-10-16T14:34:28.418Z,21.24
2022-10-16T14:36:57.344Z,21.22
2022-10-16T14:39:27.296Z,21.21
2022-10-16T14:41:59.147Z,20.98
2022-10-16T14:44:34.097Z,21.20
2022-10-16T14:47:11.996Z,21.03
2022-10-16T14:49:40.117Z,21.18
2022-10-16T14:52:13.329Z,21.20
2022-10-16T14:54:42.775Z,21.12
2022-10-16T14:57:19.491Z,21.21
2022-10-16T14:59:52.284Z,21.21
2022-10-16T15:02:27.721Z,20.91
2022-10-16T15:04:58.955Z,21.19
2022-10-16T15:07:27.769Z,20.98
2022-10-16T15:09:58.122Z,21.20
2022-10-16T15:12:26.314Z,21.19
2022-10-16T15:14:58.444Z,21.18
2022-10-16T15:17:26.983Z,21.19
2022-10-16T15:20:02.224Z,21.04
2022-10-16T15:22:30.540Z,21.17
2022-10-16T15:24:58.887Z,21.19
2022-10-16T15:27:27.409Z,21.18
2022-10-16T15:29:59.018Z,21.19
2022-10-16T15:35:06.752Z,21.18
2022-10-16T15:37:42.023Z,21.20
2022-10-16T15:40:13.601Z,21.07
2022-10-16T15:42:44.556Z,21.22
2022-10-16T15:45:17.160Z,21.10
2022-10-16T15:47:46.001Z,21.14
2022-10-16T15:50:18.403Z,21.25
2022-10-16T15:52:48.142Z,21.25
2022-10-16T15:55:18.670Z,21.13
2022-10-16T15:57:48.037Z,21.08
2022-10-16T16:00:21.985Z,21.24
2022-10-16T16:02:54.284Z,21.26
2022-10-16T16:05:24.716Z,21.08
2022-10-16T16:07:53.905Z,21.24
2022-10-16T16:10:23.466Z,21.24
2022-10-16T16:12:54.063Z,21.16
2022-10-16T16:15:24.271Z,21.23
2022-10-16T16:17:53.395Z,21.24
2022-10-16T16:20:22.649Z,20.97
2022-10-16T16:22:51.081Z,20.87
2022-10-16T16:25:20.548Z,21.19
2022-10-16T16:27:49.024Z,21.20
2022-10-16T16:30:20.512Z,21.20
2022-10-16T16:32:52.875Z,21.14
2022-10-16T16:35:22.482Z,21.20
2022-10-16T16:37:50.807Z,21.21
2022-10-16T16:40:19.167Z,20.95
2022-10-16T16:42:50.195Z,21.12
2022-10-16T16:45:23.060Z,21.14
2022-10-16T16:47:52.789Z,21.20
2022-10-16T16:50:21.416Z,21.20
2022-10-16T16:52:50.714Z,21.20
2022-10-16T16:55:20.819Z,21.20
2022-10-16T16:57:50.803Z,21.21
2022-10-16T17:00:19.656Z,21.20
2022-10-16T17:02:50.601Z,21.21
2022-10-16T17:05:20.888Z,21.08
2022-10-16T17:07:49.963Z,21.18
2022-10-16T17:10:24.964Z,21.01
2022-10-16T17:15:22.669Z,21.15
2022-10-16T17:17:53.235Z,21.20
2022-10-16T17:20:22.935Z,21.19
2022-10-16T17:22:51.165Z,21.17
2022-10-16T17:25:19.475Z,20.83
2022-10-16T17:27:50.902Z,21.19
2022-10-16T17:30:19.471Z,21.19
2022-10-16T17:32:53.291Z,21.19
2022-10-16T17:35:23.094Z,21.19
2022-10-16T17:37:57.563Z,21.19
2022-10-16T17:40:29.122Z,21.19
2022-10-16T17:42:59.884Z,21.18
2022-10-16T17:45:28.696Z,21.15
2022-10-16T17:48:01.823Z,21.19
2022-10-16T17:50:37.723Z,21.18
2022-10-16T17:53:09.661Z,21.07
2022-10-16T17:55:41.495Z,21.14
2022-10-16T17:58:10.759Z,21.19
2022-10-16T18:00:40.472Z,21.19
2022-10-16T18:03:09.218Z,21.20
2022-10-16T18:05:43.092Z,21.13
2022-10-16T18:08:12.488Z,20.85
2022-10-16T18:10:48.075Z,21.06
2022-10-16T18:13:19.323Z,21.19
2022-10-16T18:15:47.614Z,21.19
2022-10-16T18:18:15.749Z,21.18
2022-10-16T18:20:46.295Z,21.17
2022-10-16T18:23:15.072Z,21.18
2022-10-16T18:25:52.305Z,21.07
2022-10-16T18:28:21.343Z,21.19
2022-10-16T18:30:57.543Z,21.18
2022-10-16T18:33:28.543Z,21.20
2022-10-16T18:36:01.716Z,21.02
2022-10-16T18:38:33.862Z,21.00
2022-10-16T18:41:09.145Z,21.12
2022-10-16T18:43:40.771Z,21.18
2022-10-16T18:46:11.969Z,21.15
2022-10-16T18:48:40.814Z,21.16
2022-10-16T18:51:20.671Z,21.17
2022-10-16T18:53:50.976Z,21.18
2022-10-16T18:56:24.540Z,21.08
2022-10-16T18:58:54.993Z,21.15
2022-10-16T19:01:25.607Z,21.17
2022-10-16T19:03:58.006Z,21.06
2022-10-16T19:06:28.824Z,21.17
2022-10-16T19:08:58.560Z,21.18
2022-10-16T19:11:28.681Z,20.94
2022-10-16T19:13:58.222Z,21.18
2022-10-16T19:16:30.187Z,21.19
2022-10-16T19:19:00.186Z,21.12
2022-10-16T19:21:33.240Z,21.19
2022-10-16T19:24:02.818Z,21.18
2022-10-16T19:26:32.324Z,20.96
2022-10-16T19:29:03.489Z,21.18
2022-10-16T19:31:33.006Z,21.19
2022-10-16T19:34:06.966Z,21.12
2022-10-16T19:36:38.284Z,21.18
2022-10-16T19:39:08.885Z,21.10
2022-10-16T19:41:38.814Z,21.18
2022-10-16T19:44:10.259Z,21.13
2022-10-16T19:46:39.570Z,21.18
2022-10-16T19:49:10.131Z,21.13
2022-10-16T19:51:40.654Z,21.17
2022-10-16T19:54:14.223Z,21.19
2022-10-16T19:56:43.161Z,21.19
2022-10-16T19:59:16.849Z,21.16
2022-10-16T20:01:45.515Z,21.17
2022-10-16T20:04:18.146Z,21.18
2022-10-16T20:06:48.521Z,20.93
2022-10-16T20:09:16.763Z,20.94
2022-10-16T20:11:45.045Z,21.11
2022-10-16T20:14:13.300Z,21.16
2022-10-16T20:16:47.241Z,21.18
2022-10-16T20:19:16.371Z,21.19
2022-10-16T20:21:44.946Z,21.01
2022-10-16T20:24:15.741Z,21.17
2022-10-16T20:26:44.308Z,21.03
2022-10-16T20:29:12.628Z,21.19
2022-10-16T20:31:45.391Z,21.10
2022-10-16T20:34:19.276Z,21.17
2022-10-16T20:36:47.806Z,21.18
2022-10-16T20:39:18.471Z,20.92
2022-10-16T20:41:46.626Z,21.17
2022-10-16T20:44:15.386Z,21.17
2022-10-16T20:46:43.549Z,20.98
2022-10-16T20:49:28.299Z,21.17
2022-10-16T20:52:03.770Z,21.15
2022-10-16T20:54:33.535Z,21.08
2022-10-16T20:57:02.401Z,21.14
2022-10-16T20:59:35.521Z,20.98
2022-10-16T21:02:05.613Z,21.16
2022-10-16T21:04:34.662Z,21.16
2022-10-16T21:07:05.125Z,21.16
2022-10-16T21:09:34.881Z,20.84
2022-10-16T21:12:03.448Z,20.74
2022-10-16T21:14:31.782Z,21.15
2022-10-16T21:17:01.658Z,21.16
2022-10-16T21:19:31.697Z,20.88
2022-10-16T21:22:00.260Z,20.71
2022-10-16T21:24:28.833Z,21.14
2022-10-16T21:26:58.621Z,20.99
2022-10-16T21:29:27.128Z,21.15
2022-10-16T21:31:56.455Z,21.15
2022-10-16T21:34:25.679Z,21.14
2022-10-16T21:36:54.194Z,21.15
2022-10-16T21:39:26.029Z,21.12
2022-10-16T21:41:54.231Z,21.15
2022-10-16T21:44:23.884Z,21.13
2022-10-16T21:46:52.573Z,20.96
2022-10-16T21:49:21.037Z,21.13
2022-10-16T21:51:51.145Z,21.11
2022-10-16T21:54:21.820Z,21.14
2022-10-16T21:56:50.625Z,21.14
2022-10-16T21:59:19.497Z,21.11
2022-10-16T22:01:49.303Z,21.14
2022-10-16T22:04:18.920Z,21.13
2022-10-16T22:06:48.105Z,21.13
2022-10-16T22:09:16.799Z,21.14
2022-10-16T22:11:46.779Z,21.13
2022-10-16T22:14:18.448Z,21.01
2022-10-16T22:16:49.089Z,21.09
2022-10-16T22:19:19.220Z,21.15
2022-10-16T22:21:48.826Z,21.09
2022-10-16T22:24:17.771Z,20.88
2022-10-16T22:26:46.376Z,21.14
2022-10-16T22:29:15.725Z,21.13
2022-10-16T22:31:44.575Z,21.04
2022-10-16T22:34:15.654Z,20.91
2022-10-16T22:36:43.970Z,20.96
2022-10-16T22:39:12.648Z,20.99
2022-10-16T22:41:41.756Z,20.95
2022-10-16T22:44:13.349Z,21.14
2022-10-16T22:46:41.775Z,21.09
2022-10-16T22:49:10.639Z,21.14
2022-10-16T22:51:41.721Z,21.14
2022-10-16T22:54:10.375Z,21.14
2022-10-16T22:56:38.880Z,21.12
2022-10-16T22:59:07.238Z,21.13
2022-10-16T23:01:37.219Z,21.14
2022-10-16T23:04:05.931Z,21.02
2022-10-16T23:06:35.021Z,21.07
2022-10-16T23:09:05.024Z,21.14
2022-10-16T23:11:34.407Z,21.14
2022-10-16T23:14:03.677Z,21.14
2022-10-16T23:16:32.528Z,20.88
2022-10-16T23:19:01.187Z,21.15
2022-10-16T23:21:30.012Z,21.15
2022-10-16T23:23:58.108Z,21.13
2022-10-16T23:26:29.524Z,21.15
2022-10-16T23:28:59.135Z,21.15
2022-10-16T23:31:28.849Z,21.10
2022-10-16T23:33:58.448Z,20.87
2022-10-16T23:36:27.492Z,21.13
2022-10-16T23:38:56.431Z,21.08
2022-10-16T23:41:25.226Z,21.07
2022-10-16T23:43:54.834Z,20.99
2022-10-16T23:46:23.040Z,21.13
2022-10-16T23:48:51.215Z,21.13
2022-10-16T23:51:19.359Z,21.07
2022-10-16T23:53:48.508Z,21.13
2022-10-16T23:56:16.747Z,21.14
2022-10-16T23:58:45.083Z,20.96
